createdAt,value
2022-08-22T00:00:27.038Z,92.10
2022-08-22T00:02:48.065Z,58.10
2022-08-22T00:02:54.491Z,80.00
2022-08-22T00:03:03.565Z,58.10
2022-08-22T00:03:06.868Z,91.90
2022-08-22T00:03:09.768Z,86.80
2022-08-22T00:03:24.792Z,92.10
2022-08-22T00:06:06.101Z,92.00
2022-08-22T00:08:59.190Z,92.40
2022-08-22T00:11:37.324Z,92.70
2022-08-22T00:14:38.796Z,93.00
2022-08-22T00:17:33.096Z,93.00
2022-08-22T00:20:05.865Z,92.90
2022-08-22T00:22:39.840Z,93.00
2022-08-22T00:25:26.126Z,93.10
2022-08-22T00:28:27.653Z,93.30
2022-08-22T00:31:17.543Z,93.30
2022-08-22T00:33:54.093Z,93.50
2022-08-22T00:36:30.722Z,93.60
2022-08-22T00:39:21.499Z,93.90
2022-08-22T00:41:54.143Z,94.50
2022-08-22T00:44:48.116Z,94.80
2022-08-22T00:47:28.055Z,94.70
2022-08-22T00:50:19.426Z,95.10
2022-08-22T00:53:28.269Z,95.00
2022-08-22T00:56:01.116Z,95.20
2022-08-22T00:58:40.117Z,95.40
2022-08-22T01:01:10.701Z,95.60
2022-08-22T01:03:40.189Z,96.00
2022-08-22T01:06:28.727Z,95.40
2022-08-22T01:09:43.803Z,95.40
2022-08-22T01:12:39.191Z,95.30
2022-08-22T01:15:09.972Z,95.30
2022-08-22T01:18:13.752Z,95.20
2022-08-22T01:20:46.279Z,95.00
2022-08-22T01:23:34.595Z,95.00
2022-08-22T01:26:14.023Z,95.10
2022-08-22T01:28:46.407Z,95.50
2022-08-22T01:31:13.030Z,95.90
2022-08-22T01:33:45.447Z,96.30
2022-08-22T01:36:51.022Z,96.50
2022-08-22T01:39:46.218Z,96.60
2022-08-22T01:42:47.905Z,97.30
2022-08-22T01:45:14.476Z,97.90
2022-08-22T01:47:56.981Z,97.90
2022-08-22T01:50:36.694Z,97.40
2022-08-22T01:53:18.485Z,97.30
2022-08-22T01:56:10.006Z,98.00
2022-08-22T01:58:45.186Z,99.00
2022-08-22T02:01:22.950Z,98.80
2022-08-22T02:04:14.295Z,98.80
2022-08-22T02:07:00.390Z,99.10
2022-08-22T02:09:42.963Z,98.90
2022-08-22T02:13:02.412Z,99.00
2022-08-22T02:15:40.994Z,98.90
2022-08-22T02:18:12.264Z,98.70
2022-08-22T02:20:48.149Z,98.90
2022-08-22T02:23:21.818Z,99.20
2022-08-22T02:26:03.821Z,99.40
2022-08-22T02:28:57.223Z,99.70
2022-08-22T02:31:33.102Z,99.70
2022-08-22T02:34:15.239Z,99.90
2022-08-22T02:36:51.657Z,99.90
2022-08-22T02:39:44.977Z,99.90
2022-08-22T02:42:22.205Z,99.90
2022-08-22T02:44:59.202Z,99.80
2022-08-22T02:47:50.119Z,99.90
2022-08-22T02:50:35.798Z,99.90
2022-08-22T02:53:09.831Z,99.90
2022-08-22T02:56:01.480Z,99.90
2022-08-22T02:58:43.244Z,99.90
2022-08-22T03:01:24.364Z,99.90
2022-08-22T03:03:52.733Z,99.70
2022-08-22T03:06:58.978Z,99.60
2022-08-22T03:09:31.702Z,99.50
2022-08-22T03:12:14.039Z,99.10
2022-08-22T03:14:54.945Z,98.90
2022-08-22T03:17:25.787Z,99.00
2022-08-22T03:20:07.996Z,99.00
2022-08-22T03:22:37.878Z,99.60
2022-08-22T03:25:13.705Z,99.80
2022-08-22T03:28:02.884Z,99.90
2022-08-22T03:30:40.209Z,99.90
2022-08-22T03:33:38.758Z,99.90
2022-08-22T03:36:14.596Z,99.90
2022-08-22T03:38:54.514Z,99.90
2022-08-22T03:41:24.403Z,99.90
2022-08-22T03:43:51.604Z,99.90
2022-08-22T03:46:53.158Z,99.90
2022-08-22T03:49:55.673Z,99.90
2022-08-22T03:53:15.264Z,99.90
2022-08-22T03:56:09.821Z,99.90
2022-08-22T03:58:55.408Z,99.90
2022-08-22T04:01:52.764Z,99.90
2022-08-22T04:04:25.315Z,99.90
2022-08-22T04:06:57.470Z,99.80
2022-08-22T04:09:51.804Z,99.70
2022-08-22T04:12:27.474Z,99.80
2022-08-22T04:15:11.520Z,99.90
2022-08-22T04:18:07.729Z,99.90
2022-08-22T04:21:03.381Z,99.90
2022-08-22T04:23:52.162Z,99.90
2022-08-22T04:26:51.382Z,99.90
2022-08-22T04:29:35.430Z,99.70
2022-08-22T04:32:30.730Z,99.40
2022-08-22T04:35:36.063Z,99.50
2022-08-22T04:38:24.841Z,99.30
2022-08-22T04:41:27.789Z,99.40
2022-08-22T04:44:07.408Z,99.20
2022-08-22T04:46:52.136Z,99.20
2022-08-22T04:49:43.378Z,99.10
2022-08-22T04:52:39.391Z,99.20
2022-08-22T04:55:18.034Z,99.90
2022-08-22T04:57:56.386Z,99.90
2022-08-22T05:00:23.577Z,99.90
2022-08-22T05:02:52.706Z,99.90
2022-08-22T05:05:26.796Z,99.90
2022-08-22T05:07:59.609Z,99.90
2022-08-22T05:10:29.227Z,99.90
2022-08-22T05:13:01.584Z,99.90
2022-08-22T05:15:35.782Z,99.90
2022-08-22T05:18:09.906Z,99.90
2022-08-22T05:20:40.074Z,99.90
2022-08-22T05:23:18.666Z,99.90
2022-08-22T05:25:49.815Z,99.90
2022-08-22T05:28:43.919Z,99.90
2022-08-22T05:31:23.253Z,99.90
2022-08-22T05:33:57.796Z,99.90
2022-08-22T05:36:33.062Z,99.90
2022-08-22T05:39:07.225Z,99.90
2022-08-22T05:41:37.427Z,99.90
2022-08-22T05:44:06.771Z,99.90
2022-08-22T05:46:53.680Z,99.90
2022-08-22T05:49:29.858Z,99.90
2022-08-22T05:52:14.361Z,99.90
2022-08-22T05:55:02.535Z,99.90
2022-08-22T05:57:31.441Z,99.90
2022-08-22T06:00:22.167Z,99.90
2022-08-22T06:03:04.226Z,99.90
2022-08-22T06:05:33.666Z,99.90
2022-08-22T06:08:25.207Z,99.90
2022-08-22T06:10:55.973Z,99.90
2022-08-22T06:13:32.139Z,99.90
2022-08-22T06:16:20.396Z,99.90
2022-08-22T06:18:50.195Z,99.90
2022-08-22T06:21:39.195Z,99.90
2022-08-22T06:24:12.869Z,99.90
2022-08-22T06:26:46.090Z,99.80
2022-08-22T06:29:22.014Z,98.90
2022-08-22T06:31:49.808Z,99.00
2022-08-22T06:34:34.527Z,98.00
2022-08-22T06:37:05.605Z,96.50
2022-08-22T06:39:53.872Z,96.40
2022-08-22T06:42:29.649Z,95.60
2022-08-22T06:44:57.345Z,95.60
2022-08-22T06:47:29.060Z,96.00
2022-08-22T06:50:27.303Z,95.70
2022-08-22T06:53:15.887Z,95.40
2022-08-22T06:55:47.830Z,94.60
2022-08-22T06:58:18.422Z,93.80
2022-08-22T07:00:53.519Z,93.30
2022-08-22T07:03:38.333Z,92.60
2022-08-22T07:06:05.694Z,91.80
2022-08-22T07:08:38.578Z,91.30
2022-08-22T07:11:21.805Z,90.90
2022-08-22T07:13:59.484Z,88.70
2022-08-22T07:16:34.306Z,88.40
2022-08-22T07:19:01.582Z,88.50
2022-08-22T07:21:43.133Z,87.40
2022-08-22T07:24:20.047Z,86.60
2022-08-22T07:27:11.720Z,85.60
2022-08-22T07:30:00.682Z,86.00
2022-08-22T07:32:56.040Z,87.00
2022-08-22T07:35:30.323Z,86.80
2022-08-22T07:38:22.652Z,85.90
2022-08-22T07:41:19.949Z,84.80
2022-08-22T07:43:49.785Z,84.10
2022-08-22T07:46:19.468Z,84.20
2022-08-22T07:49:08.283Z,83.10
2022-08-22T07:51:46.380Z,83.50
2022-08-22T07:54:19.522Z,83.20
2022-08-22T07:57:09.532Z,82.60
2022-08-22T07:59:38.927Z,80.70
2022-08-22T08:02:12.104Z,81.10
2022-08-22T08:04:41.188Z,81.40
2022-08-22T08:07:11.291Z,83.40
2022-08-22T08:10:02.573Z,82.50
2022-08-22T08:12:35.001Z,81.10
2022-08-22T08:15:05.361Z,81.30
2022-08-22T08:17:34.412Z,80.40
2022-08-22T08:20:08.983Z,80.30
2022-08-22T08:22:37.320Z,79.70
2022-08-22T08:25:06.288Z,79.30
2022-08-22T08:27:56.779Z,79.70
2022-08-22T08:30:44.372Z,79.00
2022-08-22T08:33:25.656Z,78.80
2022-08-22T08:36:06.535Z,79.00
2022-08-22T08:38:43.542Z,77.80
2022-08-22T08:41:29.195Z,76.90
2022-08-22T08:44:01.779Z,78.40
2022-08-22T08:46:57.364Z,78.10
2022-08-22T08:49:51.126Z,79.60
2022-08-22T08:52:33.847Z,78.70
2022-08-22T08:55:39.123Z,78.80
2022-08-22T08:58:17.684Z,78.40
2022-08-22T09:01:12.496Z,77.80
2022-08-22T09:03:51.514Z,78.50
2022-08-22T09:06:52.687Z,79.10
2022-08-22T09:09:44.583Z,79.20
2022-08-22T09:15:55.040Z,78.10
2022-08-22T09:18:59.960Z,79.30
2022-08-22T09:21:52.727Z,77.80
2022-08-22T09:25:06.031Z,75.90
2022-08-22T09:27:43.037Z,75.60
2022-08-22T09:30:17.090Z,74.90
2022-08-22T09:33:12.549Z,76.30
2022-08-22T09:36:02.815Z,76.50
2022-08-22T09:39:05.879Z,74.80
2022-08-22T09:40:15.454Z,78.80
2022-08-22T09:41:54.907Z,73.10
2022-08-22T09:44:39.792Z,71.10
2022-08-22T09:47:15.489Z,70.70
2022-08-22T09:50:21.735Z,71.40
2022-08-22T09:52:53.932Z,72.60
2022-08-22T09:55:52.831Z,71.30
2022-08-22T09:58:32.655Z,72.40
2022-08-22T10:01:09.477Z,70.00
2022-08-22T10:03:45.524Z,70.40
2022-08-22T10:06:21.636Z,70.80
2022-08-22T10:09:05.023Z,68.60
2022-08-22T10:11:39.384Z,69.10
2022-08-22T10:14:11.288Z,69.10
2022-08-22T10:16:41.150Z,69.00
2022-08-22T10:19:26.529Z,65.90
2022-08-22T10:22:12.053Z,66.00
2022-08-22T10:25:15.324Z,65.60
2022-08-22T10:27:52.341Z,65.40
2022-08-22T10:30:26.517Z,64.50
2022-08-22T10:33:23.486Z,64.40
2022-08-22T10:36:11.904Z,64.90
2022-08-22T10:38:53.192Z,65.70
2022-08-22T10:41:36.718Z,65.50
2022-08-22T10:44:23.800Z,65.30
2022-08-22T10:47:03.160Z,63.80
2022-08-22T10:49:40.365Z,62.60
2022-08-22T10:52:29.619Z,62.50
2022-08-22T10:55:09.808Z,61.50
2022-08-22T10:57:49.405Z,62.10
2022-08-22T11:00:37.191Z,59.60
2022-08-22T11:03:45.272Z,59.50
2022-08-22T11:06:19.470Z,60.70
2022-08-22T11:09:07.273Z,59.60
2022-08-22T11:11:39.389Z,61.40
2022-08-22T11:14:30.116Z,60.40
2022-08-22T11:17:31.067Z,58.80
2022-08-22T11:20:21.452Z,57.60
2022-08-22T11:23:13.631Z,57.30
2022-08-22T11:26:04.883Z,57.50
2022-08-22T11:29:02.906Z,56.30
2022-08-22T11:32:05.966Z,55.90
2022-08-22T11:34:40.186Z,53.30
2022-08-22T11:37:17.495Z,52.50
2022-08-22T11:40:00.479Z,54.20
2022-08-22T11:42:48.086Z,54.60
2022-08-22T11:45:29.840Z,54.80
2022-08-22T11:48:12.369Z,55.30
2022-08-22T11:51:13.395Z,54.90
2022-08-22T11:53:55.538Z,55.30
2022-08-22T11:56:41.572Z,54.00
2022-08-22T11:59:28.991Z,53.20
2022-08-22T12:02:05.121Z,52.10
2022-08-22T12:04:44.165Z,54.10
2022-08-22T12:07:32.286Z,53.80
2022-08-22T12:10:02.741Z,52.70
2022-08-22T12:12:56.883Z,54.10
2022-08-22T12:15:53.847Z,54.10
2022-08-22T12:18:41.741Z,52.20
2022-08-22T12:21:21.449Z,52.80
2022-08-22T12:23:50.210Z,53.60
2022-08-22T12:26:35.919Z,52.60
2022-08-22T12:29:16.674Z,52.50
2022-08-22T12:32:33.316Z,52.40
2022-08-22T12:35:29.930Z,52.10
2022-08-22T12:37:57.066Z,52.20
2022-08-22T12:40:29.985Z,53.00
2022-08-22T12:43:18.859Z,52.50
2022-08-22T12:46:23.495Z,51.80
2022-08-22T12:49:00.628Z,50.30
2022-08-22T12:52:05.302Z,49.40
2022-08-22T12:54:50.987Z,49.30
2022-08-22T12:57:39.320Z,48.30
2022-08-22T13:00:29.446Z,48.60
2022-08-22T13:03:00.210Z,48.30
2022-08-22T13:05:30.742Z,48.60
2022-08-22T13:08:09.220Z,50.20
2022-08-22T13:10:48.256Z,49.20
2022-08-22T13:13:45.039Z,48.80
2022-08-22T13:16:25.525Z,48.60
2022-08-22T13:19:08.017Z,48.10
2022-08-22T13:21:47.049Z,48.90
2022-08-22T13:24:22.570Z,48.40
2022-08-22T13:26:57.221Z,48.10
2022-08-22T13:29:52.581Z,47.60
2022-08-22T13:32:32.763Z,46.40
2022-08-22T13:35:00.808Z,47.80
2022-08-22T13:37:40.006Z,48.50
2022-08-22T13:40:15.450Z,47.90
2022-08-22T13:42:48.882Z,48.20
2022-08-22T13:45:27.889Z,46.10
2022-08-22T13:48:17.352Z,45.20
2022-08-22T13:51:04.617Z,46.00
2022-08-22T13:53:50.042Z,46.00
2022-08-22T13:56:54.584Z,45.90
2022-08-22T13:59:50.173Z,46.30
2022-08-22T14:02:36.219Z,46.30
2022-08-22T14:05:18.324Z,47.80
2022-08-22T14:08:12.953Z,47.20
2022-08-22T14:10:45.672Z,48.00
2022-08-22T14:13:43.987Z,48.00
2022-08-22T14:16:23.450Z,47.60
2022-08-22T14:18:56.393Z,48.00
2022-08-22T14:21:39.998Z,47.80
2022-08-22T14:24:17.169Z,47.50
2022-08-22T14:27:05.451Z,47.00
2022-08-22T14:29:50.465Z,47.60
2022-08-22T14:32:26.708Z,48.50
2022-08-22T14:35:35.024Z,47.90
2022-08-22T14:38:32.619Z,48.60
2022-08-22T14:41:09.846Z,48.60
2022-08-22T14:43:53.357Z,48.20
2022-08-22T14:46:28.217Z,48.10
2022-08-22T14:49:14.321Z,48.60
2022-08-22T14:51:51.141Z,48.80
2022-08-22T14:54:21.616Z,48.70
2022-08-22T14:56:51.627Z,47.80
2022-08-22T14:59:51.739Z,47.40
2022-08-22T15:02:33.606Z,48.00
2022-08-22T15:05:17.965Z,49.20
2022-08-22T15:07:54.703Z,47.60
2022-08-22T15:10:31.831Z,46.70
2022-08-22T15:13:07.744Z,46.70
2022-08-22T15:15:49.237Z,47.40
2022-08-22T15:18:23.147Z,46.90
2022-08-22T15:21:33.281Z,46.10
2022-08-22T15:24:12.362Z,46.60
2022-08-22T15:26:50.404Z,46.70
2022-08-22T15:29:24.439Z,47.20
2022-08-22T15:31:54.594Z,47.20
2022-08-22T15:34:41.887Z,48.30
2022-08-22T15:37:20.628Z,48.00
2022-08-22T15:40:12.636Z,48.10
2022-08-22T15:42:47.075Z,48.00
2022-08-22T15:45:40.434Z,48.60
2022-08-22T15:48:33.623Z,48.00
2022-08-22T15:51:15.884Z,48.80
2022-08-22T15:53:45.665Z,48.90
2022-08-22T15:56:12.312Z,48.30
2022-08-22T15:58:48.814Z,48.40
2022-08-22T16:01:25.352Z,48.10
2022-08-22T16:03:54.513Z,48.70
2022-08-22T16:06:42.546Z,48.50
2022-08-22T16:09:43.502Z,48.50
2022-08-22T16:12:43.845Z,48.80
2022-08-22T16:15:56.322Z,49.30
2022-08-22T16:18:43.589Z,49.40
2022-08-22T16:21:17.773Z,48.80
2022-08-22T16:23:56.712Z,49.00
2022-08-22T16:26:29.564Z,49.30
2022-08-22T16:29:17.319Z,48.60
2022-08-22T16:31:45.109Z,48.40
2022-08-22T16:34:18.016Z,48.30
2022-08-22T16:37:03.044Z,48.50
2022-08-22T16:39:43.210Z,48.70
2022-08-22T16:42:13.071Z,48.60
2022-08-22T16:44:45.206Z,49.30
2022-08-22T16:47:13.952Z,48.80
2022-08-22T16:50:10.382Z,48.70
2022-08-22T16:52:37.050Z,49.10
2022-08-22T16:55:06.660Z,49.60
2022-08-22T16:58:09.387Z,48.80
2022-08-22T17:00:45.072Z,48.70
2022-08-22T17:03:31.300Z,48.90
2022-08-22T17:06:20.633Z,49.60
2022-08-22T17:09:03.089Z,49.10
2022-08-22T17:11:53.659Z,50.10
2022-08-22T17:14:32.437Z,49.80
2022-08-22T17:17:00.172Z,50.40
2022-08-22T17:19:52.587Z,50.00
2022-08-22T17:22:41.779Z,50.10
2022-08-22T17:25:43.844Z,49.90
2022-08-22T17:28:21.016Z,50.10
2022-08-22T17:31:38.356Z,50.20
2022-08-22T17:34:05.082Z,49.50
2022-08-22T17:36:45.128Z,50.10
2022-08-22T17:39:12.388Z,49.70
2022-08-22T17:41:51.194Z,49.90
2022-08-22T17:44:39.690Z,49.80
2022-08-22T17:47:06.375Z,50.20
2022-08-22T17:49:42.195Z,50.80
2022-08-22T17:52:44.716Z,51.00
2022-08-22T17:55:23.418Z,50.90
2022-08-22T17:58:10.442Z,51.20
2022-08-22T18:00:50.939Z,51.40
2022-08-22T18:03:31.613Z,51.30
2022-08-22T18:06:04.103Z,51.70
2022-08-22T18:11:52.053Z,51.20
2022-08-22T18:14:34.291Z,52.00
2022-08-22T18:17:01.713Z,51.80
2022-08-22T18:20:00.856Z,52.10
2022-08-22T18:22:40.361Z,52.20
2022-08-22T18:25:19.158Z,52.50
2022-08-22T18:27:55.576Z,52.50
2022-08-22T18:30:36.626Z,52.50
2022-08-22T18:33:20.229Z,52.60
2022-08-22T18:35:54.734Z,52.70
2022-08-22T18:38:34.560Z,53.10
2022-08-22T18:41:25.049Z,53.20
2022-08-22T18:43:53.729Z,53.50
2022-08-22T18:46:40.613Z,53.40
2022-08-22T18:49:19.680Z,53.30
2022-08-22T18:52:08.319Z,53.90
2022-08-22T18:55:08.911Z,54.20
2022-08-22T18:58:08.043Z,54.30
2022-08-22T19:00:37.578Z,54.20
2022-08-22T19:03:31.862Z,54.60
2022-08-22T19:06:27.786Z,56.30
2022-08-22T19:09:12.539Z,56.20
2022-08-22T19:12:07.382Z,55.90
2022-08-22T19:14:34.034Z,55.90
2022-08-22T19:17:27.618Z,55.90
2022-08-22T19:20:15.805Z,56.90
2022-08-22T19:22:43.348Z,57.40
2022-08-22T19:25:26.925Z,57.30
2022-08-22T19:28:09.497Z,57.70
2022-08-22T19:30:49.006Z,57.80
2022-08-22T19:33:34.150Z,58.20
2022-08-22T19:36:11.419Z,58.90
2022-08-22T19:38:57.595Z,58.50
2022-08-22T19:41:53.107Z,59.80
2022-08-22T19:44:19.779Z,59.70
2022-08-22T19:46:58.163Z,58.80
2022-08-22T19:49:40.740Z,58.80
2022-08-22T19:52:25.839Z,58.90
2022-08-22T19:55:24.627Z,59.50
2022-08-22T19:58:10.432Z,59.60
2022-08-22T20:01:00.638Z,59.70
2022-08-22T20:03:53.176Z,59.40
2022-08-22T20:06:43.457Z,59.50
2022-08-22T20:09:29.382Z,59.80
2022-08-22T20:12:37.334Z,59.90
2022-08-22T20:15:16.638Z,60.10
2022-08-22T20:17:43.885Z,60.30
2022-08-22T20:20:35.757Z,60.80
2022-08-22T20:23:15.758Z,60.40
2022-08-22T20:25:44.624Z,61.20
2022-08-22T20:28:29.658Z,61.20
2022-08-22T20:31:02.460Z,62.10
2022-08-22T20:33:39.199Z,63.60
2022-08-22T20:36:27.239Z,63.70
2022-08-22T20:39:08.197Z,63.30
2022-08-22T20:41:46.153Z,63.30
2022-08-22T20:44:34.834Z,63.20
2022-08-22T20:47:06.049Z,63.70
2022-08-22T20:49:45.559Z,64.50
2022-08-22T20:52:22.792Z,63.90
2022-08-22T20:55:04.562Z,63.90
2022-08-22T20:57:31.891Z,64.00
2022-08-22T21:00:07.183Z,65.10
2022-08-22T21:02:54.015Z,64.00
2022-08-22T21:05:25.000Z,64.10
2022-08-22T21:08:09.034Z,64.00
2022-08-22T21:10:56.023Z,64.40
2022-08-22T21:13:34.228Z,64.50
2022-08-22T21:16:11.657Z,64.80
2022-08-22T21:18:41.054Z,64.90
2022-08-22T21:21:24.608Z,65.60
2022-08-22T21:24:01.207Z,66.10
2022-08-22T21:26:36.528Z,66.20
2022-08-22T21:29:12.348Z,66.60
2022-08-22T21:31:50.817Z,66.50
2022-08-22T21:34:24.319Z,67.60
2022-08-22T21:36:52.829Z,68.20
2022-08-22T21:39:27.928Z,68.60
2022-08-22T21:42:00.295Z,69.00
2022-08-22T21:44:32.824Z,69.40
2022-08-22T21:47:30.220Z,69.10
2022-08-22T21:50:12.758Z,68.90
2022-08-22T21:52:59.729Z,70.10
2022-08-22T21:55:35.088Z,70.20
2022-08-22T21:58:03.800Z,70.90
2022-08-22T22:00:51.451Z,70.80
2022-08-22T22:03:25.482Z,70.90
2022-08-22T22:05:56.224Z,70.70
2022-08-22T22:08:22.970Z,69.90
2022-08-22T22:10:59.848Z,69.30
2022-08-22T22:13:28.298Z,69.00
2022-08-22T22:15:56.180Z,69.10
2022-08-22T22:18:35.761Z,68.70
2022-08-22T22:21:02.544Z,68.50
2022-08-22T22:23:29.531Z,68.40
2022-08-22T22:25:58.441Z,68.60
2022-08-22T22:28:36.566Z,68.00
2022-08-22T22:31:03.684Z,67.70
2022-08-22T22:33:34.779Z,67.50
2022-08-22T22:36:07.884Z,67.40
2022-08-22T22:38:34.923Z,67.30
2022-08-22T22:41:01.595Z,66.90
2022-08-22T22:43:28.678Z,67.10
2022-08-22T22:45:55.394Z,66.90
2022-08-22T22:48:24.234Z,67.90
2022-08-22T22:50:52.493Z,68.20
2022-08-22T22:53:21.250Z,68.30
2022-08-22T22:56:00.175Z,68.20
2022-08-22T22:58:27.928Z,68.60
2022-08-22T23:00:54.989Z,68.60
2022-08-22T23:03:22.134Z,69.20
2022-08-22T23:05:48.827Z,69.70
2022-08-22T23:08:15.604Z,69.20
2022-08-22T23:10:42.268Z,69.80
2022-08-22T23:13:09.201Z,70.70
2022-08-22T23:15:37.369Z,71.10
2022-08-22T23:18:04.288Z,71.70
2022-08-22T23:20:31.148Z,72.10
2022-08-22T23:22:59.472Z,71.90
2022-08-22T23:25:26.537Z,72.10
2022-08-22T23:27:53.645Z,71.90
2022-08-22T23:30:21.695Z,72.20
2022-08-22T23:32:48.472Z,72.70
2022-08-22T23:35:15.152Z,73.60
2022-08-22T23:37:41.921Z,74.80
2022-08-22T23:40:09.567Z,74.90
2022-08-22T23:42:36.430Z,76.00
2022-08-22T23:45:03.760Z,75.00
2022-08-22T23:47:30.429Z,75.10
2022-08-22T23:49:57.096Z,75.70
2022-08-22T23:52:23.794Z,75.90
2022-08-22T23:54:54.501Z,75.20
2022-08-22T23:57:26.446Z,75.50
2022-08-22T23:59:57.837Z,75.50
